Time,TemperatureF,DewpointF,PressureIn,WindDirection,WindDirectionDegrees,WindSpeedMPH,WindSpeedGustMPH,Humidity,HourlyPrecipIn,Conditions,Clouds,dailyrainin,SolarRadiationWatts/m^2,SoftwareType,DateUTC
2013-09-06 00:03:00,65.0,64.0,-100.00,ENE,65,0.0,2.0,98,0.00,,,0.00,0.000000,,2013-09-06 05:03:00,
2013-09-06 00:43:00,64.0,64.0,-100.00,North,359,0.0,0.0,100,0.00,,,0.00,0.000000,,2013-09-06 05:43:00,
2013-09-06 00:52:00,64.0,64.0,-100.00,North,359,0.0,0.0,100,0.00,,,0.00,0.000000,,2013-09-06 05:52:00,
2013-09-06 01:02:00,64.0,64.0,-100.00,North,359,0.0,0.0,100,0.00,,,0.00,0.000000,,2013-09-06 06:02:00,
2013-09-06 01:42:00,65.0,65.0,-100.00,East,82,1.0,3.0,100,0.00,,,0.00,0.000000,,2013-09-06 06:42:00,
2013-09-06 01:53:00,65.0,65.0,-100.00,East,82,1.0,3.0,100,0.00,,,0.00,0.000000,,2013-09-06 06:53:00,
2013-09-06 02:01:00,65.0,65.0,-100.00,East,82,1.0,3.0,100,0.00,,,0.00,0.000000,,2013-09-06 07:01:00,
2013-09-06 02:42:00,65.0,65.0,-100.00,East,87,0.0,0.0,100,0.00,,,0.00,0.000000,,2013-09-06 07:42:00,
2013-09-06 02:52:00,65.0,65.0,-100.00,East,87,0.0,0.0,100,0.00,,,0.00,0.000000,,2013-09-06 07:52:00,
2013-09-06 03:03:00,65.0,65.0,-100.00,East,87,0.0,0.0,100,0.00,,,0.00,0.000000,,2013-09-06 08:03:00,
2013-09-06 03:42:00,65.0,65.0,-100.00,East,83,0.0,0.0,100,0.00,,,0.00,0.000000,,2013-09-06 08:42:00,
2013-09-06 03:52:00,65.0,65.0,-100.00,East,83,0.0,0.0,100,0.00,,,0.00,0.000000,,2013-09-06 08:52:00,
2013-09-06 04:02:00,65.0,65.0,-100.00,East,83,0.0,0.0,100,0.00,,,0.00,0.000000,,2013-09-06 09:02:00,
2013-09-06 04:43:00,63.0,63.0,-100.00,NE,46,0.0,2.0,100,0.00,,,0.00,0.000000,,2013-09-06 09:43:00,
2013-09-06 04:54:00,63.0,63.0,-100.00,NE,46,0.0,2.0,100,0.00,,,0.00,0.000000,,2013-09-06 09:54:00,
2013-09-06 05:03:00,63.0,63.0,-100.00,NE,46,0.0,2.0,100,0.00,,,0.00,0.000000,,2013-09-06 10:03:00,
2013-09-06 05:43:00,63.0,63.0,-100.00,ESE,115,0.0,0.0,100,0.00,,,0.00,0.000000,,2013-09-06 10:43:00,
2013-09-06 05:53:00,63.0,63.0,-100.00,ESE,115,0.0,0.0,100,0.00,,,0.00,0.000000,,2013-09-06 10:53:00,
2013-09-06 06:02:00,63.0,63.0,-100.00,ESE,115,0.0,0.0,100,0.00,,,0.00,0.000000,,2013-09-06 11:02:00,
2013-09-06 06:42:00,62.0,62.0,-100.00,ENE,63,0.0,0.0,100,0.00,,,0.00,0.000000,,2013-09-06 11:42:00,
2013-09-06 06:52:00,62.0,62.0,-100.00,ENE,63,0.0,0.0,100,0.00,,,0.00,0.000000,,2013-09-06 11:52:00,
2013-09-06 07:02:00,62.0,62.0,-100.00,ENE,63,0.0,0.0,100,0.00,,,0.00,0.000000,,2013-09-06 12:02:00,
2013-09-06 07:42:00,61.0,61.0,-100.00,NE,47,0.0,0.0,100,0.00,,,0.00,11.000000,,2013-09-06 12:42:00,
2013-09-06 07:52:00,61.0,61.0,-100.00,NE,47,0.0,0.0,100,0.00,,,0.00,11.000000,,2013-09-06 12:52:00,
2013-09-06 08:02:00,61.0,61.0,-100.00,NE,47,0.0,0.0,100,0.00,,,0.00,11.000000,,2013-09-06 13:02:00,
2013-09-06 08:42:00,67.0,66.0,-100.00,ENE,57,1.0,4.0,97,0.00,,,0.00,149.000000,,2013-09-06 13:42:00,
2013-09-06 08:52:00,67.0,66.0,-100.00,ENE,57,1.0,4.0,97,0.00,,,0.00,149.000000,,2013-09-06 13:52:00,
2013-09-06 09:02:00,67.0,66.0,-100.00,ENE,57,1.0,4.0,97,0.00,,,0.00,149.000000,,2013-09-06 14:02:00,
2013-09-06 09:42:00,75.0,66.0,-100.00,East,92,4.0,7.0,74,0.00,,,0.00,373.000000,,2013-09-06 14:42:00,
2013-09-06 09:52:00,75.0,66.0,-100.00,East,92,4.0,7.0,74,0.00,,,0.00,373.000000,,2013-09-06 14:52:00,
2013-09-06 10:01:00,75.0,66.0,-100.00,East,92,4.0,7.0,74,0.00,,,0.00,373.000000,,2013-09-06 15:01:00,
2013-09-06 10:43:00,81.0,65.0,-100.00,ESE,119,3.0,7.0,59,0.00,,,0.00,544.000000,,2013-09-06 15:43:00,
2013-09-06 10:53:00,81.0,65.0,-100.00,ESE,119,3.0,7.0,59,0.00,,,0.00,544.000000,,2013-09-06 15:53:00,
2013-09-06 11:04:00,81.0,65.0,-100.00,ESE,119,3.0,7.0,59,0.00,,,0.00,544.000000,,2013-09-06 16:04:00,
2013-09-06 11:43:00,83.0,65.0,-100.00,ESE,114,4.0,8.0,54,0.00,,,0.00,748.000000,,2013-09-06 16:43:00,
2013-09-06 11:53:00,83.0,65.0,-100.00,ESE,114,4.0,8.0,54,0.00,,,0.00,748.000000,,2013-09-06 16:53:00,
2013-09-06 12:03:00,83.0,65.0,-100.00,ESE,114,4.0,8.0,54,0.00,,,0.00,748.000000,,2013-09-06 17:03:00,
2013-09-06 12:43:00,85.0,64.0,-100.00,ESE,106,4.0,10.0,49,0.00,,,0.00,852.000000,,2013-09-06 17:43:00,
2013-09-06 12:53:00,85.0,64.0,-100.00,ESE,106,4.0,10.0,49,0.00,,,0.00,852.000000,,2013-09-06 17:53:00,
2013-09-06 13:02:00,85.0,64.0,-100.00,ESE,106,4.0,10.0,49,0.00,,,0.00,852.000000,,2013-09-06 18:02:00,
2013-09-06 13:42:00,87.0,65.0,-100.00,ESE,109,3.0,7.0,48,0.00,,,0.00,923.000000,,2013-09-06 18:42:00,
2013-09-06 13:52:00,87.0,65.0,-100.00,ESE,109,3.0,7.0,48,0.00,,,0.00,923.000000,,2013-09-06 18:52:00,
2013-09-06 14:02:00,87.0,65.0,-100.00,ESE,109,3.0,7.0,48,0.00,,,0.00,923.000000,,2013-09-06 19:02:00,
2013-09-06 14:43:00,87.0,64.0,-100.00,SE,139,3.0,8.0,47,0.00,,,0.00,911.000000,,2013-09-06 19:43:00,
2013-09-06 14:52:00,87.0,64.0,-100.00,SE,139,3.0,8.0,47,0.00,,,0.00,911.000000,,2013-09-06 19:52:00,
2013-09-06 15:02:00,87.0,64.0,-100.00,SE,139,3.0,8.0,47,0.00,,,0.00,911.000000,,2013-09-06 20:02:00,
2013-09-06 15:42:00,88.0,65.0,-100.00,SE,124,3.0,8.0,46,0.00,,,0.00,852.000000,,2013-09-06 20:42:00,
2013-09-06 15:52:00,88.0,65.0,-100.00,SE,124,3.0,8.0,46,0.00,,,0.00,852.000000,,2013-09-06 20:52:00,
2013-09-06 16:01:00,88.0,65.0,-100.00,SE,124,3.0,8.0,46,0.00,,,0.00,852.000000,,2013-09-06 21:01:00,
2013-09-06 16:43:00,88.0,65.0,-100.00,ESE,121,3.0,7.0,46,0.00,,,0.00,712.000000,,2013-09-06 21:43:00,
2013-09-06 16:54:00,88.0,65.0,-100.00,ESE,121,3.0,7.0,46,0.00,,,0.00,712.000000,,2013-09-06 21:54:00,
2013-09-06 17:04:00,88.0,65.0,-100.00,ESE,121,3.0,7.0,46,0.00,,,0.00,712.000000,,2013-09-06 22:04:00,
2013-09-06 17:44:00,88.0,66.0,-100.00,South,183,2.0,7.0,48,0.00,,,0.00,520.000000,,2013-09-06 22:44:00,
2013-09-06 17:54:00,88.0,66.0,-100.00,South,183,2.0,7.0,48,0.00,,,0.00,520.000000,,2013-09-06 22:54:00,
2013-09-06 18:03:00,88.0,66.0,-100.00,South,183,2.0,7.0,48,0.00,,,0.00,520.000000,,2013-09-06 23:03:00,
2013-09-06 18:43:00,85.0,66.0,-100.00,SSE,150,2.0,5.0,53,0.00,,,0.00,303.000000,,2013-09-06 23:43:00,
2013-09-06 18:52:00,85.0,66.0,-100.00,SSE,150,2.0,5.0,53,0.00,,,0.00,303.000000,,2013-09-06 23:52:00,
2013-09-06 19:01:00,85.0,66.0,-100.00,SSE,150,2.0,5.0,53,0.00,,,0.00,303.000000,,2013-09-07 00:01:00,
2013-09-06 19:42:00,79.0,68.0,-100.00,South,172,0.0,2.0,68,0.00,,,0.00,96.000000,,2013-09-07 00:42:00,
2013-09-06 19:52:00,79.0,68.0,-100.00,South,172,0.0,2.0,68,0.00,,,0.00,96.000000,,2013-09-07 00:52:00,
2013-09-06 20:02:00,79.0,68.0,-100.00,South,172,0.0,2.0,68,0.00,,,0.00,96.000000,,2013-09-07 01:02:00,
2013-09-06 20:42:00,74.0,69.0,-100.00,SE,124,0.0,2.0,84,0.00,,,0.00,2.000000,,2013-09-07 01:42:00,
2013-09-06 20:53:00,74.0,69.0,-100.00,SE,124,0.0,2.0,84,0.00,,,0.00,2.000000,,2013-09-07 01:53:00,
2013-09-06 21:02:00,74.0,69.0,-100.00,SE,124,0.0,2.0,84,0.00,,,0.00,2.000000,,2013-09-07 02:02:00,
2013-09-06 21:43:00,71.0,67.0,-100.00,North,359,0.0,2.0,86,0.00,,,0.00,0.000000,,2013-09-07 02:43:00,
2013-09-06 21:52:00,71.0,67.0,-100.00,North,359,0.0,2.0,86,0.00,,,0.00,0.000000,,2013-09-07 02:52:00,
2013-09-06 22:02:00,71.0,67.0,-100.00,North,359,0.0,2.0,86,0.00,,,0.00,0.000000,,2013-09-07 03:02:00,
2013-09-06 22:45:00,68.0,67.0,-100.00,ESE,103,0.0,0.0,97,0.00,,,0.00,0.000000,,2013-09-07 03:45:00,
2013-09-06 22:55:00,68.0,67.0,-100.00,ESE,103,0.0,0.0,97,0.00,,,0.00,0.000000,,2013-09-07 03:55:00,
2013-09-06 23:04:00,68.0,67.0,-100.00,ESE,103,0.0,0.0,97,0.00,,,0.00,0.000000,,2013-09-07 04:04:00,
2013-09-06 23:43:00,68.0,67.0,-100.00,NE,50,0.0,0.0,98,0.00,,,0.00,0.000000,,2013-09-07 04:43:00,
2013-09-06 23:54:00,68.0,67.0,-100.00,NE,50,0.0,0.0,98,0.00,,,0.00,0.000000,,2013-09-07 04:54:00,